createdAt,value
2018-04-13T00:00:22.956Z,8.84
2018-04-13T00:02:52.323Z,8.87
2018-04-13T00:05:21.451Z,8.87
2018-04-13T00:07:50.468Z,8.76
2018-04-13T00:10:19.506Z,8.74
2018-04-13T00:12:48.566Z,8.78
2018-04-13T00:15:17.603Z,8.74
2018-04-13T00:17:48.063Z,8.84
2018-04-13T00:20:17.963Z,8.76
2018-04-13T00:22:47.007Z,8.75
2018-04-13T00:25:16.148Z,8.66
2018-04-13T00:27:45.227Z,8.66
2018-04-13T00:30:14.422Z,8.60
2018-04-13T00:32:43.579Z,8.57
2018-04-13T00:35:21.000Z,8.53
2018-04-13T00:37:50.205Z,8.53
2018-04-13T00:40:19.232Z,8.60
2018-04-13T00:42:48.228Z,8.45
2018-04-13T00:45:17.349Z,8.43
2018-04-13T00:47:46.401Z,8.43
2018-04-13T00:50:15.511Z,8.35
2018-04-13T00:52:53.678Z,8.30
2018-04-13T00:55:22.745Z,8.32
2018-04-13T00:57:51.792Z,8.37
2018-04-13T01:00:23.248Z,8.38
2018-04-13T01:02:52.409Z,8.48
2018-04-13T01:05:21.512Z,8.56
2018-04-13T01:07:54.665Z,8.55
2018-04-13T01:10:23.789Z,8.30
2018-04-13T01:12:53.065Z,8.32
2018-04-13T01:15:22.436Z,8.32
2018-04-13T01:17:51.471Z,8.25
2018-04-13T01:20:20.790Z,8.29
2018-04-13T01:22:49.960Z,8.13
2018-04-13T01:25:19.389Z,8.13
2018-04-13T01:27:48.473Z,8.14
2018-04-13T01:30:17.716Z,8.23
2018-04-13T01:32:46.822Z,8.23
2018-04-13T01:35:16.610Z,8.28
2018-04-13T01:37:46.155Z,8.16
2018-04-13T01:40:15.180Z,8.02
2018-04-13T01:42:44.333Z,8.00
2018-04-13T01:45:15.397Z,8.05
2018-04-13T01:47:44.717Z,8.04
2018-04-13T01:53:12.985Z,8.04
2018-04-13T01:55:42.008Z,8.00
2018-04-13T01:58:11.521Z,7.98
2018-04-13T02:00:40.547Z,7.97
2018-04-13T02:03:09.610Z,7.88
2018-04-13T02:05:39.118Z,8.01
2018-04-13T02:08:09.862Z,7.92
2018-04-13T02:10:40.766Z,7.92
2018-04-13T02:13:11.104Z,7.91
2018-04-13T02:15:40.520Z,7.90
2018-04-13T02:18:09.528Z,7.98
2018-04-13T02:20:38.885Z,7.97
2018-04-13T02:23:09.063Z,7.89
2018-04-13T02:25:38.212Z,7.87
2018-04-13T02:28:08.248Z,7.91
2018-04-13T02:30:39.275Z,7.95
2018-04-13T02:33:08.221Z,8.16
2018-04-13T02:35:38.702Z,8.23
2018-04-13T02:38:09.806Z,8.29
2018-04-13T02:40:38.732Z,8.38
2018-04-13T02:43:07.691Z,8.32
2018-04-13T02:45:36.693Z,8.34
2018-04-13T02:48:05.630Z,8.48
2018-04-13T02:50:34.572Z,8.46
2018-04-13T02:53:05.792Z,8.43
2018-04-13T02:55:34.696Z,8.41
2018-04-13T02:58:03.623Z,8.37
2018-04-13T03:00:32.760Z,8.42
2018-04-13T03:03:01.983Z,8.44
2018-04-13T03:05:30.919Z,8.54
2018-04-13T03:08:01.554Z,8.62
2018-04-13T03:10:31.259Z,8.47
2018-04-13T03:13:00.195Z,8.47
2018-04-13T03:15:29.251Z,8.46
2018-04-13T03:17:58.484Z,8.45
2018-04-13T03:20:31.078Z,8.50
2018-04-13T03:23:00.281Z,8.40
2018-04-13T03:25:29.318Z,8.43
2018-04-13T03:27:58.256Z,8.35
2018-04-13T03:30:27.187Z,8.33
2018-04-13T03:32:56.141Z,8.30
2018-04-13T03:35:25.559Z,8.37
2018-04-13T03:37:54.463Z,8.36
2018-04-13T03:40:23.425Z,8.21
2018-04-13T03:42:53.545Z,8.26
2018-04-13T03:45:22.798Z,8.60
2018-04-13T03:47:51.726Z,8.86
2018-04-13T03:50:22.281Z,9.11
2018-04-13T03:52:51.466Z,9.16
2018-04-13T03:55:20.390Z,9.13
2018-04-13T03:57:49.302Z,9.13
2018-04-13T04:00:18.235Z,8.90
2018-04-13T04:02:47.264Z,8.65
2018-04-13T04:05:16.343Z,8.65
2018-04-13T04:07:45.790Z,8.51
2018-04-13T04:10:14.637Z,8.56
2018-04-13T04:12:45.064Z,8.62
2018-04-13T04:15:14.146Z,8.65
2018-04-13T04:17:43.954Z,8.71
2018-04-13T04:24:31.059Z,8.67
2018-04-13T04:27:00.027Z,8.76
2018-04-13T04:29:29.143Z,9.03
2018-04-13T04:31:58.210Z,9.14
2018-04-13T04:34:27.477Z,9.23
2018-04-13T04:36:58.339Z,9.35
2018-04-13T04:39:27.268Z,9.49
2018-04-13T04:41:56.192Z,9.21
2018-04-13T04:44:25.184Z,9.01
2018-04-13T04:46:54.730Z,8.98
2018-04-13T04:49:23.731Z,9.05
2018-04-13T04:51:53.175Z,8.98
2018-04-13T04:54:22.290Z,9.14
2018-04-13T04:56:51.283Z,9.25
2018-04-13T04:59:20.405Z,9.28
2018-04-13T05:01:49.474Z,9.32
2018-04-13T05:04:18.389Z,9.43
2018-04-13T05:06:47.509Z,9.59
2018-04-13T05:09:16.458Z,9.56
2018-04-13T05:11:46.490Z,9.39
2018-04-13T05:14:15.462Z,9.49
2018-04-13T05:16:45.097Z,9.45
2018-04-13T05:19:14.045Z,9.55
2018-04-13T05:21:44.438Z,9.47
2018-04-13T05:24:13.487Z,9.54
2018-04-13T05:26:59.946Z,9.50
2018-04-13T05:29:29.164Z,9.46
2018-04-13T05:31:58.113Z,9.46
2018-04-13T05:34:27.007Z,9.33
2018-04-13T05:36:55.975Z,9.49
2018-04-13T05:39:25.411Z,9.39
2018-04-13T05:41:54.651Z,9.52
2018-04-13T05:44:23.641Z,9.60
2018-04-13T05:46:52.575Z,9.70
2018-04-13T05:49:21.578Z,9.71
2018-04-13T05:51:51.312Z,9.80
2018-04-13T05:54:20.222Z,10.03
2018-04-13T05:56:49.269Z,10.15
2018-04-13T05:59:18.572Z,10.25
2018-04-13T06:01:47.564Z,10.48
2018-04-13T06:04:17.501Z,10.64
2018-04-13T06:06:46.600Z,10.68
2018-04-13T06:09:15.749Z,10.92
2018-04-13T06:11:44.766Z,11.03
2018-04-13T06:14:13.809Z,11.25
2018-04-13T06:16:43.872Z,11.13
2018-04-13T06:19:15.116Z,10.89
2018-04-13T06:21:46.143Z,10.81
2018-04-13T06:24:15.245Z,10.98
2018-04-13T06:26:44.209Z,10.96
2018-04-13T06:29:13.513Z,11.06
2018-04-13T06:31:42.596Z,11.22
2018-04-13T06:34:11.552Z,11.34
2018-04-13T06:36:40.686Z,11.58
2018-04-13T06:39:09.699Z,11.66
2018-04-13T06:41:38.627Z,11.77
2018-04-13T06:44:07.713Z,11.91
2018-04-13T06:46:36.884Z,12.03
2018-04-13T06:49:05.755Z,11.98
2018-04-13T06:51:34.658Z,12.13
2018-04-13T06:54:03.558Z,12.23
2018-04-13T06:56:32.823Z,12.32
2018-04-13T06:59:02.281Z,12.43
2018-04-13T07:01:31.311Z,12.72
2018-04-13T07:04:00.382Z,12.83
2018-04-13T07:06:29.932Z,12.93
2018-04-13T07:08:59.038Z,13.07
2018-04-13T07:11:28.386Z,13.16
2018-04-13T07:13:57.292Z,13.23
2018-04-13T07:16:26.138Z,13.53
2018-04-13T07:18:55.881Z,13.42
2018-04-13T07:21:25.064Z,13.48
2018-04-13T07:23:53.995Z,13.55
2018-04-13T07:26:23.049Z,13.67
2018-04-13T07:28:52.276Z,13.56
2018-04-13T07:31:21.421Z,13.45
2018-04-13T07:33:50.341Z,13.33
2018-04-13T07:36:19.246Z,13.53
2018-04-13T07:38:48.453Z,13.53
2018-04-13T07:41:17.421Z,13.53
2018-04-13T07:43:46.301Z,13.54
2018-04-13T07:46:15.400Z,13.67
2018-04-13T07:48:44.375Z,13.68
2018-04-13T07:51:13.257Z,13.80
2018-04-13T07:53:42.623Z,13.69
2018-04-13T07:56:14.933Z,13.79
2018-04-13T07:58:43.983Z,13.83
2018-04-13T08:01:13.026Z,13.85
2018-04-13T08:03:41.972Z,13.96
2018-04-13T08:06:11.416Z,14.27
2018-04-13T08:08:40.493Z,14.16
2018-04-13T08:11:09.412Z,14.15
2018-04-13T08:13:38.379Z,14.21
2018-04-13T08:16:07.348Z,14.17
2018-04-13T08:18:36.281Z,14.15
2018-04-13T08:21:07.863Z,14.24
2018-04-13T08:23:36.744Z,14.25
2018-04-13T08:26:05.642Z,14.47
2018-04-13T08:28:38.356Z,14.57
2018-04-13T08:31:07.298Z,14.62
2018-04-13T08:33:36.197Z,14.82
2018-04-13T08:36:05.247Z,14.85
2018-04-13T08:38:34.433Z,14.76
2018-04-13T08:41:03.419Z,14.84
2018-04-13T08:43:32.472Z,14.93
2018-04-13T08:46:02.640Z,15.00
2018-04-13T08:48:31.569Z,15.11
2018-04-13T08:51:00.506Z,15.02
2018-04-13T08:53:29.477Z,15.05
2018-04-13T08:55:58.353Z,15.10
2018-04-13T08:58:27.258Z,14.98
2018-04-13T09:00:56.180Z,15.00
2018-04-13T09:03:25.387Z,14.88
2018-04-13T09:05:54.491Z,14.72
2018-04-13T09:08:23.456Z,14.64
2018-04-13T09:10:52.560Z,14.68
2018-04-13T09:13:21.868Z,14.61
2018-04-13T09:15:52.105Z,14.51
2018-04-13T09:18:21.053Z,14.43
2018-04-13T09:20:50.918Z,14.60
2018-04-13T09:23:19.838Z,14.60
2018-04-13T09:25:48.746Z,14.64
2018-04-13T09:28:19.289Z,14.58
2018-04-13T09:30:49.600Z,14.59
2018-04-13T09:33:18.492Z,14.57
2018-04-13T09:35:47.416Z,14.57
2018-04-13T09:38:16.372Z,14.47
2018-04-13T09:40:45.422Z,14.53
2018-04-13T09:43:14.368Z,14.44
2018-04-13T09:45:44.347Z,14.49
2018-04-13T09:48:13.247Z,14.53
2018-04-13T09:50:42.445Z,14.58
2018-04-13T09:53:11.406Z,14.56
2018-04-13T09:55:40.417Z,14.60
2018-04-13T09:58:09.462Z,14.54
2018-04-13T10:00:39.174Z,14.43
2018-04-13T10:03:13.384Z,14.39
2018-04-13T10:05:42.436Z,14.21
2018-04-13T10:08:12.085Z,14.24
2018-04-13T10:10:41.130Z,14.22
2018-04-13T10:13:10.107Z,14.19
2018-04-13T10:15:40.651Z,14.05
2018-04-13T10:18:09.765Z,14.11
2018-04-13T10:20:39.165Z,13.86
2018-04-13T10:23:11.871Z,13.61
2018-04-13T10:25:41.007Z,13.45
2018-04-13T10:28:10.053Z,12.78
2018-04-13T10:30:41.694Z,12.32
2018-04-13T10:33:11.318Z,12.06
2018-04-13T10:35:40.367Z,11.84
2018-04-13T10:38:11.023Z,11.61
2018-04-13T10:40:40.064Z,11.43
2018-04-13T10:43:09.367Z,11.26
2018-04-13T10:45:39.944Z,11.25
2018-04-13T10:48:08.909Z,11.06
2018-04-13T10:50:40.565Z,11.17
2018-04-13T10:53:10.327Z,11.16
2018-04-13T10:55:39.716Z,11.02
2018-04-13T10:58:08.872Z,11.03
2018-04-13T11:00:38.067Z,10.90
2018-04-13T11:03:07.151Z,10.87
2018-04-13T11:05:36.040Z,10.85
2018-04-13T11:08:04.961Z,10.73
2018-04-13T11:10:34.389Z,10.80
2018-04-13T11:13:03.347Z,10.77
2018-04-13T11:15:33.403Z,10.77
2018-04-13T11:18:02.948Z,10.78
2018-04-13T11:20:31.874Z,10.81
2018-04-13T11:23:01.106Z,10.77
2018-04-13T11:25:30.541Z,10.73
2018-04-13T11:27:59.899Z,10.68
2018-04-13T11:30:29.476Z,10.68
2018-04-13T11:32:58.831Z,10.63
2018-04-13T11:35:27.837Z,10.61
2018-04-13T11:37:56.884Z,10.64
2018-04-13T11:40:26.874Z,10.66
2018-04-13T11:42:57.135Z,10.62
2018-04-13T11:45:26.233Z,10.52
2018-04-13T11:47:55.263Z,10.54
2018-04-13T11:50:24.281Z,10.44
2018-04-13T11:52:53.638Z,10.41
2018-04-13T11:55:23.461Z,10.39
2018-04-13T11:57:52.384Z,10.33
2018-04-13T12:00:22.413Z,10.32
2018-04-13T12:02:53.059Z,10.23
2018-04-13T12:05:21.982Z,10.18
2018-04-13T12:07:50.988Z,10.20
2018-04-13T12:10:22.575Z,10.23
2018-04-13T12:12:52.264Z,10.17
2018-04-13T12:15:21.302Z,10.21
2018-04-13T12:17:50.572Z,10.15
2018-04-13T12:20:19.745Z,10.23
2018-04-13T12:22:48.827Z,10.20
2018-04-13T12:25:18.770Z,10.13
2018-04-13T12:27:48.084Z,10.18
2018-04-13T12:30:17.243Z,10.17
2018-04-13T12:32:47.307Z,10.13
2018-04-13T12:35:19.972Z,10.08
2018-04-13T12:37:50.068Z,10.03
2018-04-13T12:40:20.081Z,10.05
2018-04-13T12:42:49.678Z,10.24
2018-04-13T12:45:20.017Z,10.19
2018-04-13T12:47:49.240Z,10.32
2018-04-13T12:50:19.992Z,10.26
2018-04-13T12:52:49.050Z,10.15
2018-04-13T12:55:22.742Z,10.22
2018-04-13T12:57:51.882Z,10.28
2018-04-13T13:00:21.072Z,10.33
2018-04-13T13:02:51.975Z,10.31
2018-04-13T13:05:24.134Z,10.33
2018-04-13T13:07:53.309Z,10.51
2018-04-13T13:10:22.712Z,10.47
2018-04-13T13:12:52.716Z,10.51
2018-04-13T13:15:22.132Z,10.49
2018-04-13T13:17:51.334Z,10.51
2018-04-13T13:20:21.855Z,10.39
2018-04-13T13:22:50.979Z,10.38
2018-04-13T13:25:20.022Z,10.22
2018-04-13T13:27:49.216Z,10.29
2018-04-13T13:30:18.155Z,10.31
2018-04-13T13:32:47.364Z,10.48
2018-04-13T13:35:17.021Z,10.41
2018-04-13T13:37:46.003Z,10.60
2018-04-13T13:40:15.445Z,10.71
2018-04-13T13:42:44.713Z,10.72
2018-04-13T13:45:13.699Z,10.46
2018-04-13T13:47:42.693Z,10.50
2018-04-13T13:50:13.012Z,10.50
2018-04-13T13:52:42.966Z,10.64
2018-04-13T13:55:12.225Z,10.62
2018-04-13T13:57:41.595Z,10.50
2018-04-13T14:00:10.561Z,10.60
2018-04-13T14:02:39.669Z,10.46
2018-04-13T14:05:14.326Z,10.53
2018-04-13T14:07:43.366Z,10.86
2018-04-13T14:10:12.373Z,10.95
2018-04-13T14:12:41.676Z,10.92
2018-04-13T14:15:10.682Z,10.81
2018-04-13T14:17:39.972Z,10.85
2018-04-13T14:20:09.600Z,10.77
2018-04-13T14:22:39.686Z,10.70
2018-04-13T14:25:08.631Z,10.82
2018-04-13T14:27:38.137Z,10.86
2018-04-13T14:30:07.187Z,10.90
2018-04-13T14:32:36.361Z,11.05
2018-04-13T14:35:07.299Z,10.88
2018-04-13T14:37:45.212Z,10.89
2018-04-13T14:40:14.625Z,10.95
2018-04-13T14:42:46.583Z,10.86
2018-04-13T14:45:15.595Z,10.82
2018-04-13T14:47:44.753Z,10.72
2018-04-13T14:50:16.888Z,10.80
2018-04-13T14:52:47.631Z,10.69
2018-04-13T14:55:16.649Z,10.79
2018-04-13T14:57:45.946Z,10.85
2018-04-13T15:00:15.345Z,10.91
2018-04-13T15:02:45.977Z,10.96
2018-04-13T15:05:16.191Z,11.12
2018-04-13T15:07:45.174Z,10.95
2018-04-13T15:10:16.340Z,10.99
2018-04-13T15:12:45.669Z,11.08
2018-04-13T15:15:14.835Z,11.29
2018-04-13T15:17:46.229Z,11.32
2018-04-13T15:20:15.863Z,11.59
2018-04-13T15:22:45.099Z,11.62
2018-04-13T15:32:21.709Z,11.68
2018-04-13T15:34:50.922Z,11.82
2018-04-13T15:37:19.908Z,12.00
2018-04-13T15:39:49.231Z,12.26
2018-04-13T15:42:19.534Z,12.41
2018-04-13T15:44:48.522Z,12.36
2018-04-13T15:47:17.643Z,12.43
2018-04-13T15:49:46.706Z,12.51
2018-04-13T15:52:16.303Z,12.61
2018-04-13T15:54:45.389Z,12.43
